sensor_id;sensor_type;location;lat;lon;timestamp;temperature;humidity
36280;DHT22;22317;47.936;12.742;2022-08-01T00:01:45;19.50;46.60
36280;DHT22;22317;47.936;12.742;2022-08-01T00:04:10;19.50;46.70
36280;DHT22;22317;47.936;12.742;2022-08-01T00:06:36;19.40;46.50
36280;DHT22;22317;47.936;12.742;2022-08-01T00:09:05;19.40;46.90
36280;DHT22;22317;47.936;12.742;2022-08-01T00:11:37;19.40;47.00
36280;DHT22;22317;47.936;12.742;2022-08-01T00:14:03;19.30;47.20
36280;DHT22;22317;47.936;12.742;2022-08-01T00:16:29;19.30;46.90
36280;DHT22;22317;47.936;12.742;2022-08-01T00:18:55;19.30;47.40
36280;DHT22;22317;47.936;12.742;2022-08-01T00:21:21;19.30;47.60
36280;DHT22;22317;47.936;12.742;2022-08-01T00:23:47;19.20;47.70
36280;DHT22;22317;47.936;12.742;2022-08-01T00:26:16;19.20;47.60
36280;DHT22;22317;47.936;12.742;2022-08-01T00:28:47;19.10;48.00
36280;DHT22;22317;47.936;12.742;2022-08-01T00:31:16;19.10;48.20
36280;DHT22;22317;47.936;12.742;2022-08-01T00:33:44;19.10;48.20
36280;DHT22;22317;47.936;12.742;2022-08-01T00:36:16;19.10;48.10
36280;DHT22;22317;47.936;12.742;2022-08-01T00:38:42;19.10;48.60
36280;DHT22;22317;47.936;12.742;2022-08-01T00:41:07;19.00;48.60
36280;DHT22;22317;47.936;12.742;2022-08-01T00:43:33;19.00;48.70
36280;DHT22;22317;47.936;12.742;2022-08-01T00:46:05;19.00;48.50
36280;DHT22;22317;47.936;12.742;2022-08-01T00:48:34;18.90;49.00
36280;DHT22;22317;47.936;12.742;2022-08-01T00:51:00;18.90;49.10
36280;DHT22;22317;47.936;12.742;2022-08-01T00:53:31;18.90;49.10
36280;DHT22;22317;47.936;12.742;2022-08-01T00:56:01;18.80;48.80
36280;DHT22;22317;47.936;12.742;2022-08-01T00:58:27;18.80;49.40
36280;DHT22;22317;47.936;12.742;2022-08-01T01:00:56;18.80;49.40
36280;DHT22;22317;47.936;12.742;2022-08-01T01:03:23;18.80;49.40
36280;DHT22;22317;47.936;12.742;2022-08-01T01:08:35;18.70;49.50
36280;DHT22;22317;47.936;12.742;2022-08-01T01:13:57;18.70;49.50
36280;DHT22;22317;47.936;12.742;2022-08-01T01:16:25;18.60;49.10
36280;DHT22;22317;47.936;12.742;2022-08-01T01:18:59;18.50;49.40
36280;DHT22;22317;47.936;12.742;2022-08-01T01:24:28;18.50;49.40
36280;DHT22;22317;47.936;12.742;2022-08-01T01:29:43;18.40;49.30
36280;DHT22;22317;47.936;12.742;2022-08-01T01:32:30;18.40;50.00
36280;DHT22;22317;47.936;12.742;2022-08-01T01:35:02;18.40;48.90
36280;DHT22;22317;47.936;12.742;2022-08-01T01:37:30;18.40;49.40
36280;DHT22;22317;47.936;12.742;2022-08-01T01:40:07;18.40;49.30
36280;DHT22;22317;47.936;12.742;2022-08-01T01:42:35;18.40;49.40
36280;DHT22;22317;47.936;12.742;2022-08-01T01:45:03;18.40;48.90
36280;DHT22;22317;47.936;12.742;2022-08-01T01:47:29;18.40;49.50
36280;DHT22;22317;47.936;12.742;2022-08-01T01:49:57;18.40;49.50
36280;DHT22;22317;47.936;12.742;2022-08-01T01:52:26;18.40;49.40
36280;DHT22;22317;47.936;12.742;2022-08-01T01:54:54;18.40;48.70
36280;DHT22;22317;47.936;12.742;2022-08-01T01:57:22;18.40;49.00
36280;DHT22;22317;47.936;12.742;2022-08-01T01:59:49;18.40;49.10
36280;DHT22;22317;47.936;12.742;2022-08-01T02:02:17;18.40;48.80
36280;DHT22;22317;47.936;12.742;2022-08-01T02:04:46;18.40;48.70
36280;DHT22;22317;47.936;12.742;2022-08-01T02:07:14;18.30;48.10
36280;DHT22;22317;47.936;12.742;2022-08-01T02:09:43;18.30;48.60
36280;DHT22;22317;47.936;12.742;2022-08-01T02:12:17;18.30;48.50
36280;DHT22;22317;47.936;12.742;2022-08-01T02:14:46;18.30;48.40
36280;DHT22;22317;47.936;12.742;2022-08-01T02:17:16;18.30;48.00
36280;DHT22;22317;47.936;12.742;2022-08-01T02:19:44;18.30;48.50
36280;DHT22;22317;47.936;12.742;2022-08-01T02:22:19;18.30;48.50
36280;DHT22;22317;47.936;12.742;2022-08-01T02:25:02;18.30;48.00
36280;DHT22;22317;47.936;12.742;2022-08-01T02:27:34;18.30;48.40
36280;DHT22;22317;47.936;12.742;2022-08-01T02:30:06;18.30;48.40
36280;DHT22;22317;47.936;12.742;2022-08-01T02:32:44;18.30;48.40
36280;DHT22;22317;47.936;12.742;2022-08-01T02:35:20;18.30;48.40
36280;DHT22;22317;47.936;12.742;2022-08-01T02:37:48;18.40;48.40
36280;DHT22;22317;47.936;12.742;2022-08-01T02:40:16;18.40;48.40
36280;DHT22;22317;47.936;12.742;2022-08-01T02:42:50;18.40;48.40
36280;DHT22;22317;47.936;12.742;2022-08-01T02:45:18;18.40;47.90
36280;DHT22;22317;47.936;12.742;2022-08-01T02:47:48;18.40;48.40
36280;DHT22;22317;47.936;12.742;2022-08-01T02:50:16;18.40;48.40
36280;DHT22;22317;47.936;12.742;2022-08-01T02:52:47;18.40;48.30
36280;DHT22;22317;47.936;12.742;2022-08-01T02:55:14;18.40;47.80
36280;DHT22;22317;47.936;12.742;2022-08-01T02:57:42;18.40;48.30
36280;DHT22;22317;47.936;12.742;2022-08-01T03:00:09;18.30;48.10
36280;DHT22;22317;47.936;12.742;2022-08-01T03:02:36;18.40;48.20
36280;DHT22;22317;47.936;12.742;2022-08-01T03:05:03;18.30;47.50
36280;DHT22;22317;47.936;12.742;2022-08-01T03:07:32;18.50;48.20
36280;DHT22;22317;47.936;12.742;2022-08-01T03:09:59;18.50;48.00
36280;DHT22;22317;47.936;12.742;2022-08-01T03:12:27;18.50;47.90
36280;DHT22;22317;47.936;12.742;2022-08-01T03:14:56;18.50;47.30
36280;DHT22;22317;47.936;12.742;2022-08-01T03:17:25;18.50;47.80
36280;DHT22;22317;47.936;12.742;2022-08-01T03:19:57;18.50;47.70
36280;DHT22;22317;47.936;12.742;2022-08-01T03:22:25;18.50;47.50
36280;DHT22;22317;47.936;12.742;2022-08-01T03:24:52;18.50;47.10
36280;DHT22;22317;47.936;12.742;2022-08-01T03:27:22;18.50;47.50
36280;DHT22;22317;47.936;12.742;2022-08-01T03:29:50;18.50;47.50
36280;DHT22;22317;47.936;12.742;2022-08-01T03:32:17;18.60;46.90
36280;DHT22;22317;47.936;12.742;2022-08-01T03:34:44;15.40;45.50
36280;DHT22;22317;47.936;12.742;2022-08-01T03:37:23;18.60;46.50
36280;DHT22;22317;47.936;12.742;2022-08-01T03:40:02;18.60;47.00
36280;DHT22;22317;47.936;12.742;2022-08-01T03:42:35;18.60;47.00
36280;DHT22;22317;47.936;12.742;2022-08-01T03:45:08;18.50;46.60
36280;DHT22;22317;47.936;12.742;2022-08-01T03:47:36;18.50;47.00
36280;DHT22;22317;47.936;12.742;2022-08-01T03:50:06;18.50;46.90
36280;DHT22;22317;47.936;12.742;2022-08-01T03:52:34;18.50;46.90
36280;DHT22;22317;47.936;12.742;2022-08-01T03:55:05;18.50;46.40
36280;DHT22;22317;47.936;12.742;2022-08-01T03:57:41;18.50;46.80
36280;DHT22;22317;47.936;12.742;2022-08-01T04:00:08;18.50;46.70
36280;DHT22;22317;47.936;12.742;2022-08-01T04:02:38;18.50;46.70
36280;DHT22;22317;47.936;12.742;2022-08-01T04:05:04;18.60;46.30
36280;DHT22;22317;47.936;12.742;2022-08-01T04:07:33;18.60;46.60
36280;DHT22;22317;47.936;12.742;2022-08-01T04:10:18;18.60;46.40
36280;DHT22;22317;47.936;12.742;2022-08-01T04:12:44;18.60;46.20
36280;DHT22;22317;47.936;12.742;2022-08-01T04:15:09;18.70;45.80
36280;DHT22;22317;47.936;12.742;2022-08-01T04:17:35;18.70;46.20
36280;DHT22;22317;47.936;12.742;2022-08-01T04:20:01;18.70;46.00
36280;DHT22;22317;47.936;12.742;2022-08-01T04:22:27;18.70;45.90
36280;DHT22;22317;47.936;12.742;2022-08-01T04:24:55;18.80;45.40
36280;DHT22;22317;47.936;12.742;2022-08-01T04:27:24;18.80;45.30
36280;DHT22;22317;47.936;12.742;2022-08-01T04:29:54;18.80;45.70
36280;DHT22;22317;47.936;12.742;2022-08-01T04:32:22;18.80;45.50
36280;DHT22;22317;47.936;12.742;2022-08-01T04:34:49;18.80;45.10
36280;DHT22;22317;47.936;12.742;2022-08-01T04:37:16;18.80;45.50
36280;DHT22;22317;47.936;12.742;2022-08-01T04:39:44;18.90;45.50
36280;DHT22;22317;47.936;12.742;2022-08-01T04:42:14;18.90;45.40
36280;DHT22;22317;47.936;12.742;2022-08-01T04:44:50;18.90;44.80
36280;DHT22;22317;47.936;12.742;2022-08-01T04:47:17;18.90;45.30
36280;DHT22;22317;47.936;12.742;2022-08-01T04:49:43;19.00;45.40
36280;DHT22;22317;47.936;12.742;2022-08-01T04:52:14;19.00;45.30
36280;DHT22;22317;47.936;12.742;2022-08-01T04:54:39;19.10;45.30
36280;DHT22;22317;47.936;12.742;2022-08-01T04:57:08;19.10;44.70
36280;DHT22;22317;47.936;12.742;2022-08-01T04:59:42;19.10;45.10
36280;DHT22;22317;47.936;12.742;2022-08-01T05:02:14;19.20;45.20
36280;DHT22;22317;47.936;12.742;2022-08-01T05:04:41;19.20;45.00
36280;DHT22;22317;47.936;12.742;2022-08-01T05:07:08;19.30;44.40
36280;DHT22;22317;47.936;12.742;2022-08-01T05:09:35;19.30;44.90
36280;DHT22;22317;47.936;12.742;2022-08-01T05:12:05;19.30;44.80
36280;DHT22;22317;47.936;12.742;2022-08-01T05:14:36;19.00;44.00
36280;DHT22;22317;47.936;12.742;2022-08-01T05:17:04;19.30;44.20
36280;DHT22;22317;47.936;12.742;2022-08-01T05:19:31;19.30;44.70
36280;DHT22;22317;47.936;12.742;2022-08-01T05:21:58;19.40;44.80
36280;DHT22;22317;47.936;12.742;2022-08-01T05:24:47;19.40;44.60
36280;DHT22;22317;47.936;12.742;2022-08-01T05:27:15;19.50;44.10
36280;DHT22;22317;47.936;12.742;2022-08-01T05:29:47;18.80;43.90
36280;DHT22;22317;47.936;12.742;2022-08-01T05:32:12;19.50;44.30
36280;DHT22;22317;47.936;12.742;2022-08-01T05:34:41;19.50;44.30
36280;DHT22;22317;47.936;12.742;2022-08-01T05:37:13;19.50;43.90
36280;DHT22;22317;47.936;12.742;2022-08-01T05:39:39;19.50;44.40
36280;DHT22;22317;47.936;12.742;2022-08-01T05:42:05;19.50;43.90
36280;DHT22;22317;47.936;12.742;2022-08-01T05:44:31;19.60;44.40
36280;DHT22;22317;47.936;12.742;2022-08-01T05:46:57;19.60;43.70
36280;DHT22;22317;47.936;12.742;2022-08-01T05:49:23;19.60;44.00
36280;DHT22;22317;47.936;12.742;2022-08-01T05:51:49;19.60;43.90
36280;DHT22;22317;47.936;12.742;2022-08-01T05:54:14;19.50;43.90
36280;DHT22;22317;47.936;12.742;2022-08-01T05:56:40;19.60;43.50
36280;DHT22;22317;47.936;12.742;2022-08-01T05:59:06;19.60;44.00
36280;DHT22;22317;47.936;12.742;2022-08-01T06:01:32;19.60;44.00
36280;DHT22;22317;47.936;12.742;2022-08-01T06:03:58;19.60;43.80
36280;DHT22;22317;47.936;12.742;2022-08-01T06:06:24;19.60;43.30
36280;DHT22;22317;47.936;12.742;2022-08-01T06:08:49;19.70;43.80
36280;DHT22;22317;47.936;12.742;2022-08-01T06:11:16;19.70;43.80
36280;DHT22;22317;47.936;12.742;2022-08-01T06:13:42;19.70;43.80
36280;DHT22;22317;47.936;12.742;2022-08-01T06:16:07;19.70;43.30
36280;DHT22;22317;47.936;12.742;2022-08-01T06:18:33;19.70;43.80
36280;DHT22;22317;47.936;12.742;2022-08-01T06:20:59;19.60;43.80
36280;DHT22;22317;47.936;12.742;2022-08-01T06:23:25;19.70;44.00
36280;DHT22;22317;47.936;12.742;2022-08-01T06:25:54;19.80;43.70
36280;DHT22;22317;47.936;12.742;2022-08-01T06:28:21;19.80;44.10
36280;DHT22;22317;47.936;12.742;2022-08-01T06:30:47;19.80;43.90
36280;DHT22;22317;47.936;12.742;2022-08-01T06:33:13;19.80;43.80
36280;DHT22;22317;47.936;12.742;2022-08-01T06:35:38;19.90;43.30
36280;DHT22;22317;47.936;12.742;2022-08-01T06:38:04;19.90;43.80
36280;DHT22;22317;47.936;12.742;2022-08-01T06:40:30;19.90;43.80
36280;DHT22;22317;47.936;12.742;2022-08-01T06:42:56;20.00;43.80
36280;DHT22;22317;47.936;12.742;2022-08-01T06:45:22;20.00;43.10
36280;DHT22;22317;47.936;12.742;2022-08-01T06:47:48;20.00;43.60
36280;DHT22;22317;47.936;12.742;2022-08-01T06:50:14;20.00;43.80
36280;DHT22;22317;47.936;12.742;2022-08-01T06:52:41;20.10;44.50
36280;DHT22;22317;47.936;12.742;2022-08-01T06:55:07;20.10;43.30
36280;DHT22;22317;47.936;12.742;2022-08-01T06:57:33;20.10;43.80
36280;DHT22;22317;47.936;12.742;2022-08-01T07:00:03;20.20;43.70
36280;DHT22;22317;47.936;12.742;2022-08-01T07:02:29;20.20;43.50
36280;DHT22;22317;47.936;12.742;2022-08-01T07:04:55;20.20;43.30
36280;DHT22;22317;47.936;12.742;2022-08-01T07:07:23;20.20;43.20
36280;DHT22;22317;47.936;12.742;2022-08-01T07:09:48;20.20;43.70
36280;DHT22;22317;47.936;12.742;2022-08-01T07:12:14;20.30;43.90
36280;DHT22;22317;47.936;12.742;2022-08-01T07:14:40;20.30;43.50
36280;DHT22;22317;47.936;12.742;2022-08-01T07:17:06;20.40;43.50
36280;DHT22;22317;47.936;12.742;2022-08-01T07:19:31;20.50;43.80
36280;DHT22;22317;47.936;12.742;2022-08-01T07:21:57;20.50;43.70
36280;DHT22;22317;47.936;12.742;2022-08-01T07:24:23;20.60;43.70
36280;DHT22;22317;47.936;12.742;2022-08-01T07:26:49;20.70;43.30
36280;DHT22;22317;47.936;12.742;2022-08-01T07:29:15;20.70;43.80
36280;DHT22;22317;47.936;12.742;2022-08-01T07:31:42;20.80;43.70
36280;DHT22;22317;47.936;12.742;2022-08-01T07:34:08;20.90;43.60
36280;DHT22;22317;47.936;12.742;2022-08-01T07:36:34;21.00;43.00
36280;DHT22;22317;47.936;12.742;2022-08-01T07:38:59;21.00;43.50
36280;DHT22;22317;47.936;12.742;2022-08-01T07:41:25;21.10;43.40
36280;DHT22;22317;47.936;12.742;2022-08-01T07:43:51;21.10;43.20
36280;DHT22;22317;47.936;12.742;2022-08-01T07:46:17;21.20;43.00
36280;DHT22;22317;47.936;12.742;2022-08-01T07:48:43;21.30;43.00
36280;DHT22;22317;47.936;12.742;2022-08-01T07:51:09;21.30;43.00
36280;DHT22;22317;47.936;12.742;2022-08-01T07:53:36;21.40;43.10
36280;DHT22;22317;47.936;12.742;2022-08-01T07:56:02;21.50;42.60
36280;DHT22;22317;47.936;12.742;2022-08-01T07:58:30;22.00;43.20
36280;DHT22;22317;47.936;12.742;2022-08-01T08:00:56;21.70;42.80
36280;DHT22;22317;47.936;12.742;2022-08-01T08:03:21;19.80;41.20
36280;DHT22;22317;47.936;12.742;2022-08-01T08:05:47;21.80;41.70
36280;DHT22;22317;47.936;12.742;2022-08-01T08:08:13;21.90;42.40
36280;DHT22;22317;47.936;12.742;2022-08-01T08:10:41;21.90;42.40
36280;DHT22;22317;47.936;12.742;2022-08-01T08:13:06;22.00;42.00
36280;DHT22;22317;47.936;12.742;2022-08-01T08:15:32;21.90;41.40
36280;DHT22;22317;47.936;12.742;2022-08-01T08:17:58;21.30;41.50
36280;DHT22;22317;47.936;12.742;2022-08-01T08:20:24;21.90;41.80
36280;DHT22;22317;47.936;12.742;2022-08-01T08:22:55;21.90;42.00
36280;DHT22;22317;47.936;12.742;2022-08-01T08:25:21;21.90;42.20
36280;DHT22;22317;47.936;12.742;2022-08-01T08:27:47;22.00;42.30
36280;DHT22;22317;47.936;12.742;2022-08-01T08:30:16;22.10;42.30
36280;DHT22;22317;47.936;12.742;2022-08-01T08:32:42;22.20;42.10
36280;DHT22;22317;47.936;12.742;2022-08-01T08:35:14;22.30;42.00
36280;DHT22;22317;47.936;12.742;2022-08-01T08:37:43;22.50;42.00
36280;DHT22;22317;47.936;12.742;2022-08-01T08:40:09;22.60;41.90
36280;DHT22;22317;47.936;12.742;2022-08-01T08:42:35;22.70;41.80
36280;DHT22;22317;47.936;12.742;2022-08-01T08:45:11;22.80;41.20
36280;DHT22;22317;47.936;12.742;2022-08-01T08:47:41;22.80;41.50
36280;DHT22;22317;47.936;12.742;2022-08-01T08:50:10;22.90;41.50
36280;DHT22;22317;47.936;12.742;2022-08-01T08:52:38;23.00;41.50
36280;DHT22;22317;47.936;12.742;2022-08-01T08:55:05;23.30;41.00
36280;DHT22;22317;47.936;12.742;2022-08-01T08:57:39;23.20;41.20
36280;DHT22;22317;47.936;12.742;2022-08-01T09:00:06;23.40;40.90
36280;DHT22;22317;47.936;12.742;2022-08-01T09:02:32;23.50;40.80
36280;DHT22;22317;47.936;12.742;2022-08-01T09:04:58;23.70;40.40
36280;DHT22;22317;47.936;12.742;2022-08-01T09:07:24;23.70;40.90
36280;DHT22;22317;47.936;12.742;2022-08-01T09:09:54;23.80;40.70
36280;DHT22;22317;47.936;12.742;2022-08-01T09:12:22;23.90;40.40
36280;DHT22;22317;47.936;12.742;2022-08-01T09:14:51;24.10;39.50
36280;DHT22;22317;47.936;12.742;2022-08-01T09:17:21;24.10;40.00
36280;DHT22;22317;47.936;12.742;2022-08-01T09:19:50;24.20;39.60
36280;DHT22;22317;47.936;12.742;2022-08-01T09:22:20;24.30;39.40
36280;DHT22;22317;47.936;12.742;2022-08-01T09:27:34;24.50;39.00
36280;DHT22;22317;47.936;12.742;2022-08-01T09:30:08;24.60;39.10
36280;DHT22;22317;47.936;12.742;2022-08-01T09:32:35;24.70;38.80
36280;DHT22;22317;47.936;12.742;2022-08-01T09:35:25;24.80;37.80
36280;DHT22;22317;47.936;12.742;2022-08-01T09:37:51;24.80;37.70
36280;DHT22;22317;47.936;12.742;2022-08-01T09:40:22;24.90;37.90
36280;DHT22;22317;47.936;12.742;2022-08-01T09:42:48;24.90;37.80
36280;DHT22;22317;47.936;12.742;2022-08-01T09:45:43;25.00;37.70
36280;DHT22;22317;47.936;12.742;2022-08-01T09:48:10;25.10;37.40
36280;DHT22;22317;47.936;12.742;2022-08-01T09:50:46;25.20;37.70
36280;DHT22;22317;47.936;12.742;2022-08-01T09:53:13;25.30;37.30
36280;DHT22;22317;47.936;12.742;2022-08-01T09:55:40;25.30;37.30
36280;DHT22;22317;47.936;12.742;2022-08-01T09:58:07;25.40;37.30
36280;DHT22;22317;47.936;12.742;2022-08-01T10:00:34;25.50;37.40
36280;DHT22;22317;47.936;12.742;2022-08-01T10:03:21;25.60;37.20
36280;DHT22;22317;47.936;12.742;2022-08-01T10:05:50;25.70;37.00
36280;DHT22;22317;47.936;12.742;2022-08-01T10:08:23;25.80;36.90
36280;DHT22;22317;47.936;12.742;2022-08-01T10:11:11;25.90;36.90
36280;DHT22;22317;47.936;12.742;2022-08-01T10:13:37;26.00;36.20
36280;DHT22;22317;47.936;12.742;2022-08-01T10:16:07;26.10;36.30
36280;DHT22;22317;47.936;12.742;2022-08-01T10:18:34;26.20;35.80
36280;DHT22;22317;47.936;12.742;2022-08-01T10:21:02;26.20;35.70
36280;DHT22;22317;47.936;12.742;2022-08-01T10:23:33;26.30;35.80
36280;DHT22;22317;47.936;12.742;2022-08-01T10:26:01;26.30;36.20
36280;DHT22;22317;47.936;12.742;2022-08-01T10:28:35;26.40;35.40
36280;DHT22;22317;47.936;12.742;2022-08-01T10:31:02;26.50;35.40
36280;DHT22;22317;47.936;12.742;2022-08-01T10:33:29;26.60;35.50
36280;DHT22;22317;47.936;12.742;2022-08-01T10:35:55;26.70;35.30
36280;DHT22;22317;47.936;12.742;2022-08-01T10:38:22;26.80;35.30
36280;DHT22;22317;47.936;12.742;2022-08-01T10:40:49;26.90;35.40
36280;DHT22;22317;47.936;12.742;2022-08-01T10:43:16;26.90;34.10
36280;DHT22;22317;47.936;12.742;2022-08-01T10:45:45;26.80;34.10
36280;DHT22;22317;47.936;12.742;2022-08-01T10:48:31;26.80;34.20
36280;DHT22;22317;47.936;12.742;2022-08-01T10:51:02;26.70;34.10
36280;DHT22;22317;47.936;12.742;2022-08-01T10:53:28;26.80;34.30
36280;DHT22;22317;47.936;12.742;2022-08-01T11:09:00;27.70;33.70
36280;DHT22;22317;47.936;12.742;2022-08-01T11:11:26;27.10;33.30
36280;DHT22;22317;47.936;12.742;2022-08-01T11:16:37;27.30;33.50
36280;DHT22;22317;47.936;12.742;2022-08-01T11:19:04;27.40;33.20
36280;DHT22;22317;47.936;12.742;2022-08-01T11:29:43;27.60;33.20
36280;DHT22;22317;47.936;12.742;2022-08-01T11:32:26;27.70;32.50
36280;DHT22;22317;47.936;12.742;2022-08-01T11:34:55;27.70;32.00
36280;DHT22;22317;47.936;12.742;2022-08-01T11:37:29;27.70;32.40
36280;DHT22;22317;47.936;12.742;2022-08-01T11:40:20;27.70;31.80
36280;DHT22;22317;47.936;12.742;2022-08-01T11:42:48;27.60;31.80
36280;DHT22;22317;47.936;12.742;2022-08-01T11:45:15;27.50;32.20
36280;DHT22;22317;47.936;12.742;2022-08-01T11:47:48;27.50;32.30
36280;DHT22;22317;47.936;12.742;2022-08-01T11:50:33;27.50;32.40
36280;DHT22;22317;47.936;12.742;2022-08-01T11:53:00;27.50;32.40
36280;DHT22;22317;47.936;12.742;2022-08-01T11:55:27;27.60;32.50
36280;DHT22;22317;47.936;12.742;2022-08-01T11:58:07;27.60;32.20
36280;DHT22;22317;47.936;12.742;2022-08-01T12:00:35;27.80;32.50
36280;DHT22;22317;47.936;12.742;2022-08-01T12:03:07;28.00;32.50
36280;DHT22;22317;47.936;12.742;2022-08-01T12:05:34;28.10;32.30
36280;DHT22;22317;47.936;12.742;2022-08-01T12:08:02;28.30;32.20
36280;DHT22;22317;47.936;12.742;2022-08-01T12:10:32;28.40;32.10
36280;DHT22;22317;47.936;12.742;2022-08-01T12:13:06;28.40;31.50
36280;DHT22;22317;47.936;12.742;2022-08-01T12:15:37;28.50;31.10
36280;DHT22;22317;47.936;12.742;2022-08-01T12:18:07;28.50;31.00
36280;DHT22;22317;47.936;12.742;2022-08-01T12:20:38;28.60;31.10
36280;DHT22;22317;47.936;12.742;2022-08-01T12:23:07;28.70;31.10
36280;DHT22;22317;47.936;12.742;2022-08-01T12:25:34;28.90;30.50
36280;DHT22;22317;47.936;12.742;2022-08-01T12:28:02;28.90;30.00
36280;DHT22;22317;47.936;12.742;2022-08-01T12:30:29;28.80;29.70
36280;DHT22;22317;47.936;12.742;2022-08-01T12:32:56;28.60;29.90
36280;DHT22;22317;47.936;12.742;2022-08-01T12:35:25;28.90;30.10
36280;DHT22;22317;47.936;12.742;2022-08-01T12:40:33;29.20;30.30
36280;DHT22;22317;47.936;12.742;2022-08-01T12:43:07;29.40;30.20
36280;DHT22;22317;47.936;12.742;2022-08-01T12:45:41;29.70;30.20
36280;DHT22;22317;47.936;12.742;2022-08-01T12:48:12;29.90;30.20
36280;DHT22;22317;47.936;12.742;2022-08-01T12:50:44;30.00;29.50
36280;DHT22;22317;47.936;12.742;2022-08-01T12:53:10;29.90;28.80
36280;DHT22;22317;47.936;12.742;2022-08-01T12:55:47;29.80;28.90
36280;DHT22;22317;47.936;12.742;2022-08-01T12:58:15;29.90;28.60
36280;DHT22;22317;47.936;12.742;2022-08-01T13:00:44;30.00;28.90
36280;DHT22;22317;47.936;12.742;2022-08-01T13:03:12;30.20;28.70
36280;DHT22;22317;47.936;12.742;2022-08-01T13:05:56;30.10;28.40
36280;DHT22;22317;47.936;12.742;2022-08-01T13:08:29;30.10;28.00
36280;DHT22;22317;47.936;12.742;2022-08-01T13:11:14;29.90;28.40
36280;DHT22;22317;47.936;12.742;2022-08-01T13:13:44;29.90;28.70
36280;DHT22;22317;47.936;12.742;2022-08-01T13:16:24;29.80;28.70
36280;DHT22;22317;47.936;12.742;2022-08-01T13:18:55;29.80;28.80
36280;DHT22;22317;47.936;12.742;2022-08-01T13:21:26;29.80;29.10
36280;DHT22;22317;47.936;12.742;2022-08-01T13:24:10;29.80;29.30
36280;DHT22;22317;47.936;12.742;2022-08-01T13:26:57;30.00;29.50
36280;DHT22;22317;47.936;12.742;2022-08-01T13:31:58;30.50;29.50
36280;DHT22;22317;47.936;12.742;2022-08-01T13:34:34;30.80;29.40
36280;DHT22;22317;47.936;12.742;2022-08-01T13:37:01;31.00;29.10
36280;DHT22;22317;47.936;12.742;2022-08-01T13:39:30;31.10;28.60
36280;DHT22;22317;47.936;12.742;2022-08-01T13:42:11;31.20;27.90
36280;DHT22;22317;47.936;12.742;2022-08-01T13:44:37;31.20;28.10
36280;DHT22;22317;47.936;12.742;2022-08-01T13:47:04;31.40;28.80
36280;DHT22;22317;47.936;12.742;2022-08-01T13:49:33;31.60;28.10
36280;DHT22;22317;47.936;12.742;2022-08-01T13:52:00;31.80;27.70
36280;DHT22;22317;47.936;12.742;2022-08-01T13:54:29;31.90;27.20
36280;DHT22;22317;47.936;12.742;2022-08-01T13:56:55;31.90;26.70
36280;DHT22;22317;47.936;12.742;2022-08-01T13:59:23;31.80;26.70
36280;DHT22;22317;47.936;12.742;2022-08-01T14:01:49;31.70;26.50
36280;DHT22;22317;47.936;12.742;2022-08-01T14:04:15;31.60;26.30
36280;DHT22;22317;47.936;12.742;2022-08-01T14:06:41;31.50;26.30
36280;DHT22;22317;47.936;12.742;2022-08-01T14:09:07;31.50;26.50
36280;DHT22;22317;47.936;12.742;2022-08-01T14:11:36;31.50;26.40
36280;DHT22;22317;47.936;12.742;2022-08-01T14:14:01;31.50;26.50
36280;DHT22;22317;47.936;12.742;2022-08-01T14:16:27;31.70;26.60
36280;DHT22;22317;47.936;12.742;2022-08-01T14:18:53;31.70;26.30
36280;DHT22;22317;47.936;12.742;2022-08-01T14:21:22;31.60;25.80
36280;DHT22;22317;47.936;12.742;2022-08-01T14:23:48;31.60;26.10
36280;DHT22;22317;47.936;12.742;2022-08-01T14:26:16;31.70;26.60
36280;DHT22;22317;47.936;12.742;2022-08-01T14:28:42;31.80;26.40
36280;DHT22;22317;47.936;12.742;2022-08-01T14:31:08;32.00;26.00
36280;DHT22;22317;47.936;12.742;2022-08-01T14:33:34;32.10;26.20
36280;DHT22;22317;47.936;12.742;2022-08-01T14:36:00;32.40;26.30
36280;DHT22;22317;47.936;12.742;2022-08-01T14:38:26;32.70;26.10
36280;DHT22;22317;47.936;12.742;2022-08-01T14:40:52;32.80;25.80
36280;DHT22;22317;47.936;12.742;2022-08-01T14:43:19;32.90;25.70
36280;DHT22;22317;47.936;12.742;2022-08-01T14:45:45;32.80;24.90
36280;DHT22;22317;47.936;12.742;2022-08-01T14:48:11;32.60;24.60
36280;DHT22;22317;47.936;12.742;2022-08-01T14:50:37;32.40;24.50
36280;DHT22;22317;47.936;12.742;2022-08-01T14:53:02;32.30;24.50
36280;DHT22;22317;47.936;12.742;2022-08-01T14:55:28;32.30;24.40
36280;DHT22;22317;47.936;12.742;2022-08-01T14:57:54;32.20;24.20
36280;DHT22;22317;47.936;12.742;2022-08-01T15:00:23;32.10;24.20
36280;DHT22;22317;47.936;12.742;2022-08-01T15:02:48;32.10;24.40
36280;DHT22;22317;47.936;12.742;2022-08-01T15:05:14;32.10;24.60
36280;DHT22;22317;47.936;12.742;2022-08-01T15:07:40;32.20;24.80
36280;DHT22;22317;47.936;12.742;2022-08-01T15:10:06;32.30;24.60
36280;DHT22;22317;47.936;12.742;2022-08-01T15:12:32;32.30;24.30
36280;DHT22;22317;47.936;12.742;2022-08-01T15:14:59;32.40;24.50
36280;DHT22;22317;47.936;12.742;2022-08-01T15:17:30;32.40;25.00
36280;DHT22;22317;47.936;12.742;2022-08-01T15:20:00;32.50;25.30
36280;DHT22;22317;47.936;12.742;2022-08-01T15:22:27;32.50;25.40
36280;DHT22;22317;47.936;12.742;2022-08-01T15:24:55;32.40;25.10
36280;DHT22;22317;47.936;12.742;2022-08-01T15:27:21;32.40;25.50
36280;DHT22;22317;47.936;12.742;2022-08-01T15:29:48;32.30;25.40
36280;DHT22;22317;47.936;12.742;2022-08-01T15:32:14;32.00;25.50
36280;DHT22;22317;47.936;12.742;2022-08-01T15:34:43;31.80;25.80
36280;DHT22;22317;47.936;12.742;2022-08-01T15:37:10;31.60;25.90
36280;DHT22;22317;47.936;12.742;2022-08-01T15:39:39;31.50;26.60
36280;DHT22;22317;47.936;12.742;2022-08-01T15:42:09;31.40;26.30
36280;DHT22;22317;47.936;12.742;2022-08-01T15:44:38;31.20;26.20
36280;DHT22;22317;47.936;12.742;2022-08-01T15:47:05;31.10;26.50
36280;DHT22;22317;47.936;12.742;2022-08-01T15:49:31;30.90;26.70
36280;DHT22;22317;47.936;12.742;2022-08-01T15:51:58;30.80;26.80
36280;DHT22;22317;47.936;12.742;2022-08-01T15:54:24;30.70;26.90
36280;DHT22;22317;47.936;12.742;2022-08-01T15:56:50;30.60;27.00
36280;DHT22;22317;47.936;12.742;2022-08-01T15:59:16;30.50;27.10
36280;DHT22;22317;47.936;12.742;2022-08-01T16:01:42;30.50;27.30
36280;DHT22;22317;47.936;12.742;2022-08-01T16:04:08;30.40;27.30
36280;DHT22;22317;47.936;12.742;2022-08-01T16:06:40;30.30;27.30
36280;DHT22;22317;47.936;12.742;2022-08-01T16:09:08;30.20;27.50